Foosland, IL (61845)

7:14 AM CST on December 21, 2014 (GMT -0600)
n fisher | Change Station
CLOSE
Current Station
Personal Weather Station
Location: Fisher, IL
Elevation: 722 ft
Nearby Weather Stations

Elev 722 ft 40.32 °N, 88.35 °W | Updated 14 minutes ago

Overcast
Overcast
29.9 °F
Feels Like 25 °F
N
4.7
Wind Variable Wind from SE

Today
High -- | Low -- °F
--% Chance of Precip.
Yesterday
High -- | Low -- °F
Precip. -- in
7:13 AM 4:30 PM
Waning Crescent, 0% visible
Pressure 30.25 in
Visibility 7.0 miles
Clouds Scattered Clouds 2800 ft
Overcast 3500 ft
Windchill 25 °F
Dew Point 28 °F
Humidity 92%
Rainfall 0.00 in
Snow Depth Not available.
UV 0 out of 12
Pollen .10 out of 12
Air Quality Not available.
Flu Activity Not available.
METAR KTIP 211250Z AUTO 15007KT 7SM SCT028 OVC035 00/M01 A3025 RMK AO2 T00011013

More Conditions Fewer Conditions

Pressure 30.25 in
Visibility 7.0 miles
Clouds Scattered Clouds 2800 ft
Overcast 3500 ft
Windchill 25 °F
Dew Point 28 °F
Humidity 92%
Rainfall 0.00 in
Snow Depth Not available.
UV 0 out of 12
Pollen .10 out of 12
Air Quality Not available.
Flu Activity Not available.
METAR KTIP 211250Z AUTO 15007KT 7SM SCT028 OVC035 00/M01 A3025 RMK AO2 T00011013

More Conditions Fewer Conditions

10-Day Weather Forecast

Almanac

Astronomy

Dec. 21, 2014 Rise Set
Actual Time
Civil Twilight
Nautical Twilight
Astronomical Twilight
Moon
Length of Visible Light
Length of Day
Tomorrow will be .
, % of the Moon is Illuminated

Today's Extremes

State Highs State Lows

Community

WunderPhotos

Upload Photos

1,779,373 photos uploaded!

WunderBlogs® & News

Nearby

Air Quality

  Air Quality AQ Index Pollutant
Not available.

Snow Depth

Station Depth Elevation

Earthquake Activity

City Distance Mag. Time & Date
Minimum magnitude displayed is 2.5.

Coastal Water Temperatures

Place Temperature

Nearby Weather Stations